sensor_id;sensor_type;location;lat;lon;timestamp;pressure;altitude;pressure_sealevel;temperature;humidity
33151;BME280;19508;42.578;23.416;2023-02-12T00:00:17;94604.94;;;-1.76;53.63
33151;BME280;19508;42.578;23.416;2023-02-12T00:02:42;94605.78;;;-1.76;53.44
33151;BME280;19508;42.578;23.416;2023-02-12T00:05:08;94600.19;;;-1.64;52.46
33151;BME280;19508;42.578;23.416;2023-02-12T00:07:33;94603.72;;;-1.48;52.25
33151;BME280;19508;42.578;23.416;2023-02-12T00:09:58;94594.00;;;-1.31;51.44
33151;BME280;19508;42.578;23.416;2023-02-12T00:12:24;94599.00;;;-1.20;52.24
33151;BME280;19508;42.578;23.416;2023-02-12T00:14:49;94589.25;;;-1.27;52.51
33151;BME280;19508;42.578;23.416;2023-02-12T00:17:14;94601.50;;;-1.10;51.89
33151;BME280;19508;42.578;23.416;2023-02-12T00:19:40;94607.41;;;-1.16;52.11
33151;BME280;19508;42.578;23.416;2023-02-12T00:22:05;94599.84;;;-0.95;49.58
33151;BME280;19508;42.578;23.416;2023-02-12T00:24:31;94605.13;;;-0.62;48.83
33151;BME280;19508;42.578;23.416;2023-02-12T00:26:56;94594.53;;;-0.54;48.22
33151;BME280;19508;42.578;23.416;2023-02-12T00:29:22;94599.00;;;-0.71;48.63
33151;BME280;19508;42.578;23.416;2023-02-12T00:31:47;94593.06;;;-0.73;47.17
33151;BME280;19508;42.578;23.416;2023-02-12T00:34:12;94596.53;;;-0.64;45.85
33151;BME280;19508;42.578;23.416;2023-02-12T00:36:38;94589.25;;;-0.62;45.04
33151;BME280;19508;42.578;23.416;2023-02-12T00:39:03;94598.84;;;-0.69;46.03
33151;BME280;19508;42.578;23.416;2023-02-12T00:41:29;94594.72;;;-0.64;45.33
33151;BME280;19508;42.578;23.416;2023-02-12T00:43:55;94590.91;;;-0.77;46.87
33151;BME280;19508;42.578;23.416;2023-02-12T00:46:20;94580.66;;;-0.97;48.32
33151;BME280;19508;42.578;23.416;2023-02-12T00:48:46;94584.97;;;-1.04;48.02
33151;BME280;19508;42.578;23.416;2023-02-12T00:51:11;94562.31;;;-1.15;47.94
33151;BME280;19508;42.578;23.416;2023-02-12T00:53:37;94566.78;;;-1.23;48.36
33151;BME280;19508;42.578;23.416;2023-02-12T00:56:03;94576.34;;;-1.22;49.40
33151;BME280;19508;42.578;23.416;2023-02-12T00:58:28;94557.66;;;-1.53;48.97
33151;BME280;19508;42.578;23.416;2023-02-12T01:00:54;94562.44;;;-1.49;50.90
33151;BME280;19508;42.578;23.416;2023-02-12T01:03:20;94569.88;;;-1.52;51.11
33151;BME280;19508;42.578;23.416;2023-02-12T01:05:45;94567.38;;;-1.62;51.76
33151;BME280;19508;42.578;23.416;2023-02-12T01:08:12;94565.66;;;-1.71;53.27
33151;BME280;19508;42.578;23.416;2023-02-12T01:10:38;94546.19;;;-1.86;53.65
33151;BME280;19508;42.578;23.416;2023-02-12T01:13:04;94563.75;;;-2.03;54.62
33151;BME280;19508;42.578;23.416;2023-02-12T01:15:29;94545.41;;;-2.13;54.77
33151;BME280;19508;42.578;23.416;2023-02-12T01:17:55;94568.19;;;-2.12;54.56
33151;BME280;19508;42.578;23.416;2023-02-12T01:20:22;94568.81;;;-2.18;54.40
33151;BME280;19508;42.578;23.416;2023-02-12T01:22:48;94575.59;;;-2.07;54.51
33151;BME280;19508;42.578;23.416;2023-02-12T01:25:13;94579.22;;;-2.08;53.51
33151;BME280;19508;42.578;23.416;2023-02-12T01:27:39;94573.47;;;-2.12;53.41
33151;BME280;19508;42.578;23.416;2023-02-12T01:30:09;94575.66;;;-1.99;51.84
33151;BME280;19508;42.578;23.416;2023-02-12T01:32:35;94571.88;;;-1.96;52.33
33151;BME280;19508;42.578;23.416;2023-02-12T01:35:01;94576.13;;;-2.04;53.43
33151;BME280;19508;42.578;23.416;2023-02-12T01:37:26;94560.53;;;-2.23;53.67
33151;BME280;19508;42.578;23.416;2023-02-12T01:39:52;94571.03;;;-2.31;53.88
33151;BME280;19508;42.578;23.416;2023-02-12T01:42:18;94544.44;;;-2.46;54.75
33151;BME280;19508;42.578;23.416;2023-02-12T01:45:37;94550.66;;;-2.21;53.97
33151;BME280;19508;42.578;23.416;2023-02-12T01:47:30;94537.88;;;-2.34;55.02
33151;BME280;19508;42.578;23.416;2023-02-12T01:49:55;94551.28;;;-2.27;54.86
33151;BME280;19508;42.578;23.416;2023-02-12T01:52:26;94543.75;;;-2.14;54.23
33151;BME280;19508;42.578;23.416;2023-02-12T01:54:53;94552.69;;;-2.41;55.78
33151;BME280;19508;42.578;23.416;2023-02-12T01:57:20;94544.31;;;-2.36;55.18
33151;BME280;19508;42.578;23.416;2023-02-12T01:59:48;94537.75;;;-2.24;55.43
33151;BME280;19508;42.578;23.416;2023-02-12T02:02:16;94522.59;;;-2.30;55.52
33151;BME280;19508;42.578;23.416;2023-02-12T02:04:54;94534.09;;;-2.31;57.12
33151;BME280;19508;42.578;23.416;2023-02-12T02:07:21;94521.59;;;-2.29;56.64
33151;BME280;19508;42.578;23.416;2023-02-12T02:09:47;94539.41;;;-2.23;56.77
33151;BME280;19508;42.578;23.416;2023-02-12T02:12:12;94535.25;;;-2.34;57.59
33151;BME280;19508;42.578;23.416;2023-02-12T02:14:58;94538.50;;;-2.40;57.77
33151;BME280;19508;42.578;23.416;2023-02-12T02:17:30;94535.09;;;-2.32;57.63
33151;BME280;19508;42.578;23.416;2023-02-12T02:31:16;94537.59;;;-2.22;57.94
33151;BME280;19508;42.578;23.416;2023-02-12T02:39:25;94529.81;;;-2.32;58.02
33151;BME280;19508;42.578;23.416;2023-02-12T02:41:59;94530.47;;;-2.38;58.53
33151;BME280;19508;42.578;23.416;2023-02-12T02:44:49;94535.28;;;-2.25;57.86
33151;BME280;19508;42.578;23.416;2023-02-12T02:47:20;94527.91;;;-2.14;57.84
33151;BME280;19508;42.578;23.416;2023-02-12T02:49:56;94530.53;;;-2.22;58.08
33151;BME280;19508;42.578;23.416;2023-02-12T02:52:33;94539.69;;;-2.00;58.24
33151;BME280;19508;42.578;23.416;2023-02-12T02:55:03;94552.28;;;-1.86;59.49
33151;BME280;19508;42.578;23.416;2023-02-12T02:57:50;94546.69;;;-1.75;59.10
33151;BME280;19508;42.578;23.416;2023-02-12T03:00:18;94536.31;;;-1.68;58.69
33151;BME280;19508;42.578;23.416;2023-02-12T03:02:50;94542.75;;;-1.62;58.20
33151;BME280;19508;42.578;23.416;2023-02-12T03:08:22;94537.22;;;-1.35;57.63
33151;BME280;19508;42.578;23.416;2023-02-12T03:11:05;94547.94;;;-1.20;58.14
33151;BME280;19508;42.578;23.416;2023-02-12T03:13:48;94534.72;;;-1.20;58.89
33151;BME280;19508;42.578;23.416;2023-02-12T03:16:17;94542.16;;;-1.24;58.79
33151;BME280;19508;42.578;23.416;2023-02-12T03:18:55;94532.78;;;-1.10;58.78
33151;BME280;19508;42.578;23.416;2023-02-12T03:24:11;94526.50;;;-1.01;58.19
33151;BME280;19508;42.578;23.416;2023-02-12T03:29:07;94515.41;;;-1.04;58.21
33151;BME280;19508;42.578;23.416;2023-02-12T03:34:32;94528.78;;;-0.81;57.75
33151;BME280;19508;42.578;23.416;2023-02-12T03:37:08;94529.25;;;-0.70;58.20
33151;BME280;19508;42.578;23.416;2023-02-12T03:39:55;94528.59;;;-0.55;58.54
33151;BME280;19508;42.578;23.416;2023-02-12T03:44:52;94517.78;;;-0.38;58.37
33151;BME280;19508;42.578;23.416;2023-02-12T03:52:41;94518.09;;;0.15;56.01
33151;BME280;19508;42.578;23.416;2023-02-12T03:55:08;94520.41;;;0.18;56.43
33151;BME280;19508;42.578;23.416;2023-02-12T03:57:51;94514.16;;;0.34;57.16
33151;BME280;19508;42.578;23.416;2023-02-12T04:00:23;94516.78;;;0.42;56.77
33151;BME280;19508;42.578;23.416;2023-02-12T04:02:50;94521.22;;;0.49;56.59
33151;BME280;19508;42.578;23.416;2023-02-12T04:05:19;94521.75;;;0.45;56.41
33151;BME280;19508;42.578;23.416;2023-02-12T04:07:45;94515.44;;;0.46;57.13
33151;BME280;19508;42.578;23.416;2023-02-12T04:10:11;94507.09;;;0.57;56.24
33151;BME280;19508;42.578;23.416;2023-02-12T04:12:59;94511.47;;;0.73;55.70
33151;BME280;19508;42.578;23.416;2023-02-12T04:15:56;94517.94;;;0.70;54.88
33151;BME280;19508;42.578;23.416;2023-02-12T04:18:29;94513.59;;;0.77;55.30
33151;BME280;19508;42.578;23.416;2023-02-12T04:21:11;94508.13;;;0.94;54.84
33151;BME280;19508;42.578;23.416;2023-02-12T04:26:22;94520.88;;;1.21;54.06
33151;BME280;19508;42.578;23.416;2023-02-12T04:32:13;94532.09;;;0.86;52.92
33151;BME280;19508;42.578;23.416;2023-02-12T04:37:45;94535.72;;;0.84;52.70
33151;BME280;19508;42.578;23.416;2023-02-12T04:40:12;94540.75;;;0.79;52.84
33151;BME280;19508;42.578;23.416;2023-02-12T04:42:46;94540.50;;;0.89;53.25
33151;BME280;19508;42.578;23.416;2023-02-12T04:45:15;94539.50;;;0.90;53.74
33151;BME280;19508;42.578;23.416;2023-02-12T04:47:42;94539.63;;;0.97;53.92
33151;BME280;19508;42.578;23.416;2023-02-12T04:50:08;94544.69;;;1.06;53.89
33151;BME280;19508;42.578;23.416;2023-02-12T04:52:33;94554.09;;;1.09;54.03
33151;BME280;19508;42.578;23.416;2023-02-12T04:54:59;94542.91;;;0.99;54.10
33151;BME280;19508;42.578;23.416;2023-02-12T04:57:24;94549.09;;;1.14;53.84
33151;BME280;19508;42.578;23.416;2023-02-12T04:59:49;94549.81;;;1.08;52.27
33151;BME280;19508;42.578;23.416;2023-02-12T05:02:15;94532.88;;;1.09;52.00
33151;BME280;19508;42.578;23.416;2023-02-12T05:04:40;94538.84;;;1.11;53.61
33151;BME280;19508;42.578;23.416;2023-02-12T05:07:05;94546.31;;;1.30;52.98
33151;BME280;19508;42.578;23.416;2023-02-12T05:09:31;94553.97;;;1.25;53.93
33151;BME280;19508;42.578;23.416;2023-02-12T05:11:56;94544.81;;;1.28;54.23
33151;BME280;19508;42.578;23.416;2023-02-12T05:14:25;94547.41;;;1.21;53.70
33151;BME280;19508;42.578;23.416;2023-02-12T05:16:50;94557.63;;;1.24;54.05
33151;BME280;19508;42.578;23.416;2023-02-12T05:19:16;94539.50;;;1.13;55.17
33151;BME280;19508;42.578;23.416;2023-02-12T05:21:41;94536.94;;;1.20;54.65
33151;BME280;19508;42.578;23.416;2023-02-12T05:24:07;94553.28;;;1.31;54.95
33151;BME280;19508;42.578;23.416;2023-02-12T05:26:33;94554.47;;;1.06;53.83
33151;BME280;19508;42.578;23.416;2023-02-12T05:28:58;94555.50;;;1.20;54.69
33151;BME280;19508;42.578;23.416;2023-02-12T05:31:24;94570.53;;;1.27;55.03
33151;BME280;19508;42.578;23.416;2023-02-12T05:33:49;94575.56;;;1.22;54.42
33151;BME280;19508;42.578;23.416;2023-02-12T05:36:21;94577.22;;;1.23;55.39
33151;BME280;19508;42.578;23.416;2023-02-12T05:38:47;94577.34;;;1.07;55.78
33151;BME280;19508;42.578;23.416;2023-02-12T05:41:21;94595.09;;;1.06;55.61
33151;BME280;19508;42.578;23.416;2023-02-12T05:43:48;94591.25;;;1.09;56.13
33151;BME280;19508;42.578;23.416;2023-02-12T05:46:14;94609.94;;;1.16;54.61
33151;BME280;19508;42.578;23.416;2023-02-12T05:48:40;94596.50;;;0.94;56.63
33151;BME280;19508;42.578;23.416;2023-02-12T05:51:11;94595.25;;;1.05;58.02
33151;BME280;19508;42.578;23.416;2023-02-12T05:53:38;94597.09;;;1.04;57.96
33151;BME280;19508;42.578;23.416;2023-02-12T05:56:15;94581.22;;;1.19;58.03
33151;BME280;19508;42.578;23.416;2023-02-12T05:58:45;94586.63;;;1.26;56.53
33151;BME280;19508;42.578;23.416;2023-02-12T06:01:21;94585.19;;;1.23;56.87
33151;BME280;19508;42.578;23.416;2023-02-12T06:03:47;94602.56;;;1.49;56.59
33151;BME280;19508;42.578;23.416;2023-02-12T06:06:12;94601.63;;;1.41;55.59
33151;BME280;19508;42.578;23.416;2023-02-12T06:08:38;94583.94;;;1.34;56.64
33151;BME280;19508;42.578;23.416;2023-02-12T06:11:07;94594.09;;;1.30;55.81
33151;BME280;19508;42.578;23.416;2023-02-12T06:13:33;94605.91;;;1.42;55.96
33151;BME280;19508;42.578;23.416;2023-02-12T06:16:00;94596.84;;;1.37;56.66
33151;BME280;19508;42.578;23.416;2023-02-12T06:18:27;94607.94;;;1.40;57.72
33151;BME280;19508;42.578;23.416;2023-02-12T06:20:53;94601.97;;;1.76;57.51
33151;BME280;19508;42.578;23.416;2023-02-12T06:23:20;94597.66;;;1.75;57.15
33151;BME280;19508;42.578;23.416;2023-02-12T06:25:47;94593.88;;;1.55;58.34
33151;BME280;19508;42.578;23.416;2023-02-12T06:28:12;94600.41;;;1.67;58.44
33151;BME280;19508;42.578;23.416;2023-02-12T06:30:38;94597.09;;;1.65;58.77
33151;BME280;19508;42.578;23.416;2023-02-12T06:33:05;94599.69;;;1.73;58.58
33151;BME280;19508;42.578;23.416;2023-02-12T06:35:36;94583.28;;;1.69;58.52
33151;BME280;19508;42.578;23.416;2023-02-12T06:38:10;94584.91;;;1.56;59.02
33151;BME280;19508;42.578;23.416;2023-02-12T06:40:35;94601.94;;;1.61;59.36
33151;BME280;19508;42.578;23.416;2023-02-12T06:43:00;94605.00;;;1.73;59.47
33151;BME280;19508;42.578;23.416;2023-02-12T06:45:26;94605.41;;;2.00;58.80
33151;BME280;19508;42.578;23.416;2023-02-12T06:47:52;94602.81;;;1.91;59.24
33151;BME280;19508;42.578;23.416;2023-02-12T06:50:17;94589.06;;;1.73;60.41
33151;BME280;19508;42.578;23.416;2023-02-12T06:52:43;94614.28;;;1.92;60.28
33151;BME280;19508;42.578;23.416;2023-02-12T06:55:08;94615.66;;;2.03;60.56
33151;BME280;19508;42.578;23.416;2023-02-12T06:57:33;94616.13;;;2.06;60.30
33151;BME280;19508;42.578;23.416;2023-02-12T06:59:59;94620.97;;;2.03;60.29
33151;BME280;19508;42.578;23.416;2023-02-12T07:02:24;94623.13;;;1.84;60.77
33151;BME280;19508;42.578;23.416;2023-02-12T07:04:52;94618.53;;;1.78;60.64
33151;BME280;19508;42.578;23.416;2023-02-12T07:07:17;94616.88;;;1.77;60.69
33151;BME280;19508;42.578;23.416;2023-02-12T07:09:43;94622.19;;;1.62;62.17
33151;BME280;19508;42.578;23.416;2023-02-12T07:12:08;94619.28;;;1.72;61.81
33151;BME280;19508;42.578;23.416;2023-02-12T07:14:34;94610.50;;;1.72;61.84
33151;BME280;19508;42.578;23.416;2023-02-12T07:16:59;94605.94;;;1.80;61.46
33151;BME280;19508;42.578;23.416;2023-02-12T07:19:28;94620.97;;;2.03;61.00
33151;BME280;19508;42.578;23.416;2023-02-12T07:21:54;94621.78;;;2.03;60.86
33151;BME280;19508;42.578;23.416;2023-02-12T07:24:19;94625.75;;;2.07;60.27
33151;BME280;19508;42.578;23.416;2023-02-12T07:26:47;94618.50;;;2.01;60.93
33151;BME280;19508;42.578;23.416;2023-02-12T07:29:12;94618.19;;;1.81;62.14
33151;BME280;19508;42.578;23.416;2023-02-12T07:31:39;94617.53;;;1.79;62.17
33151;BME280;19508;42.578;23.416;2023-02-12T07:34:04;94623.34;;;1.97;61.84
33151;BME280;19508;42.578;23.416;2023-02-12T07:36:31;94628.06;;;1.87;61.87
33151;BME280;19508;42.578;23.416;2023-02-12T07:38:57;94631.56;;;1.88;62.10
33151;BME280;19508;42.578;23.416;2023-02-12T07:41:29;94634.34;;;1.57;63.01
33151;BME280;19508;42.578;23.416;2023-02-12T07:44:05;94640.19;;;1.90;62.67
33151;BME280;19508;42.578;23.416;2023-02-12T07:46:35;94645.72;;;2.18;61.62
33151;BME280;19508;42.578;23.416;2023-02-12T07:49:03;94636.19;;;2.38;60.84
33151;BME280;19508;42.578;23.416;2023-02-12T07:51:30;94641.31;;;2.54;60.71
33151;BME280;19508;42.578;23.416;2023-02-12T07:53:57;94638.13;;;2.59;60.26
33151;BME280;19508;42.578;23.416;2023-02-12T07:56:25;94629.22;;;2.67;60.23
33151;BME280;19508;42.578;23.416;2023-02-12T07:58:55;94639.97;;;2.44;60.71
33151;BME280;19508;42.578;23.416;2023-02-12T08:01:26;94646.09;;;2.44;60.93
33151;BME280;19508;42.578;23.416;2023-02-12T08:03:52;94656.00;;;2.50;60.76
33151;BME280;19508;42.578;23.416;2023-02-12T08:08:44;94658.19;;;2.32;61.05
33151;BME280;19508;42.578;23.416;2023-02-12T08:11:11;94646.09;;;2.15;61.94
33151;BME280;19508;42.578;23.416;2023-02-12T08:13:38;94661.22;;;2.14;62.62
33151;BME280;19508;42.578;23.416;2023-02-12T08:16:12;94662.69;;;2.17;62.23
33151;BME280;19508;42.578;23.416;2023-02-12T08:18:38;94665.25;;;1.87;63.17
33151;BME280;19508;42.578;23.416;2023-02-12T08:21:11;94664.91;;;1.90;63.92
33151;BME280;19508;42.578;23.416;2023-02-12T08:23:37;94671.59;;;1.86;63.67
33151;BME280;19508;42.578;23.416;2023-02-12T08:28:37;94670.41;;;1.89;64.25
33151;BME280;19508;42.578;23.416;2023-02-12T08:31:05;94675.25;;;2.23;63.13
33151;BME280;19508;42.578;23.416;2023-02-12T08:33:31;94670.50;;;1.95;63.58
33151;BME280;19508;42.578;23.416;2023-02-12T08:36:05;94676.34;;;2.14;63.32
33151;BME280;19508;42.578;23.416;2023-02-12T08:38:32;94673.53;;;1.92;64.22
33151;BME280;19508;42.578;23.416;2023-02-12T08:41:02;94677.25;;;1.83;64.55
33151;BME280;19508;42.578;23.416;2023-02-12T08:43:28;94669.25;;;2.06;63.74
33151;BME280;19508;42.578;23.416;2023-02-12T08:45:54;94683.84;;;2.54;62.66
33151;BME280;19508;42.578;23.416;2023-02-12T08:48:22;94688.06;;;2.64;62.35
33151;BME280;19508;42.578;23.416;2023-02-12T08:50:47;94686.25;;;2.79;61.97
33151;BME280;19508;42.578;23.416;2023-02-12T08:53:13;94697.88;;;2.93;61.31
33151;BME280;19508;42.578;23.416;2023-02-12T08:55:38;94690.88;;;3.06;61.03
33151;BME280;19508;42.578;23.416;2023-02-12T08:58:03;94692.19;;;3.32;60.07
33151;BME280;19508;42.578;23.416;2023-02-12T09:00:29;94694.25;;;3.30;60.07
33151;BME280;19508;42.578;23.416;2023-02-12T09:02:54;94701.72;;;3.41;59.13
33151;BME280;19508;42.578;23.416;2023-02-12T09:05:23;94697.31;;;2.97;60.81
33151;BME280;19508;42.578;23.416;2023-02-12T09:07:50;94700.06;;;3.19;60.46
33151;BME280;19508;42.578;23.416;2023-02-12T09:10:16;94706.63;;;3.59;59.01
33151;BME280;19508;42.578;23.416;2023-02-12T09:12:41;94697.56;;;3.53;59.21
33151;BME280;19508;42.578;23.416;2023-02-12T09:15:07;94699.84;;;3.56;58.89
33151;BME280;19508;42.578;23.416;2023-02-12T09:17:32;94696.91;;;3.30;59.79
33151;BME280;19508;42.578;23.416;2023-02-12T09:19:58;94703.84;;;3.46;59.73
33151;BME280;19508;42.578;23.416;2023-02-12T09:22:25;94701.25;;;3.74;59.13
33151;BME280;19508;42.578;23.416;2023-02-12T09:24:50;94700.34;;;3.66;59.57
33151;BME280;19508;42.578;23.416;2023-02-12T09:27:16;94700.03;;;3.33;60.56
33151;BME280;19508;42.578;23.416;2023-02-12T09:29:41;94707.44;;;3.38;59.82
33151;BME280;19508;42.578;23.416;2023-02-12T09:32:06;94701.50;;;3.57;59.57
33151;BME280;19508;42.578;23.416;2023-02-12T09:34:34;94705.09;;;3.50;59.84
33151;BME280;19508;42.578;23.416;2023-02-12T09:37:00;94715.34;;;3.67;59.67
33151;BME280;19508;42.578;23.416;2023-02-12T09:39:26;94709.66;;;3.34;60.03
33151;BME280;19508;42.578;23.416;2023-02-12T09:47:35;94703.84;;;3.67;59.73
33151;BME280;19508;42.578;23.416;2023-02-12T09:50:51;94713.25;;;3.27;61.80
33151;BME280;19508;42.578;23.416;2023-02-12T09:52:57;94702.66;;;3.70;60.06
33151;BME280;19508;42.578;23.416;2023-02-12T09:55:28;94720.19;;;3.43;61.46
33151;BME280;19508;42.578;23.416;2023-02-12T09:57:54;94704.50;;;3.33;61.61
33151;BME280;19508;42.578;23.416;2023-02-12T10:00:26;94721.94;;;3.93;60.19
33151;BME280;19508;42.578;23.416;2023-02-12T10:02:53;94716.97;;;3.47;60.41
33151;BME280;19508;42.578;23.416;2023-02-12T10:05:25;94718.75;;;3.61;60.25
33151;BME280;19508;42.578;23.416;2023-02-12T10:08:14;94730.38;;;3.39;61.10
33151;BME280;19508;42.578;23.416;2023-02-12T10:16:35;94725.94;;;3.61;60.63
33151;BME280;19508;42.578;23.416;2023-02-12T10:19:19;94727.72;;;3.96;59.44
33151;BME280;19508;42.578;23.416;2023-02-12T10:22:17;94718.75;;;3.83;60.20
33151;BME280;19508;42.578;23.416;2023-02-12T10:25:00;94731.91;;;4.06;58.53
33151;BME280;19508;42.578;23.416;2023-02-12T10:27:54;94728.66;;;3.89;59.33
33151;BME280;19508;42.578;23.416;2023-02-12T10:30:33;94725.50;;;3.79;59.74
33151;BME280;19508;42.578;23.416;2023-02-12T10:33:04;94724.69;;;3.42;61.05
33151;BME280;19508;42.578;23.416;2023-02-12T10:35:31;94716.31;;;3.45;60.09
33151;BME280;19508;42.578;23.416;2023-02-12T10:38:26;94722.19;;;3.40;61.03
33151;BME280;19508;42.578;23.416;2023-02-12T10:40:54;94747.38;;;3.95;60.00
33151;BME280;19508;42.578;23.416;2023-02-12T10:43:23;94739.41;;;3.95;59.53
33151;BME280;19508;42.578;23.416;2023-02-12T10:45:48;94737.72;;;3.73;59.85
33151;BME280;19508;42.578;23.416;2023-02-12T10:48:24;94732.97;;;3.90;59.99
33151;BME280;19508;42.578;23.416;2023-02-12T10:53:24;94738.47;;;4.10;59.24
33151;BME280;19508;42.578;23.416;2023-02-12T10:58:42;94738.31;;;4.11;59.46
33151;BME280;19508;42.578;23.416;2023-02-12T11:03:58;94725.34;;;4.30;58.93
33151;BME280;19508;42.578;23.416;2023-02-12T11:06:26;94719.72;;;4.46;57.82
33151;BME280;19508;42.578;23.416;2023-02-12T11:08:53;94722.09;;;4.62;57.54
33151;BME280;19508;42.578;23.416;2023-02-12T11:11:22;94719.75;;;4.80;57.31
33151;BME280;19508;42.578;23.416;2023-02-12T11:14:03;94710.53;;;5.24;56.58
33151;BME280;19508;42.578;23.416;2023-02-12T11:16:50;94719.75;;;5.89;54.71
33151;BME280;19508;42.578;23.416;2023-02-12T11:19:29;94717.97;;;6.03;53.89
33151;BME280;19508;42.578;23.416;2023-02-12T11:22:12;94725.22;;;6.56;52.37
33151;BME280;19508;42.578;23.416;2023-02-12T11:24:44;94723.97;;;6.78;51.64
33151;BME280;19508;42.578;23.416;2023-02-12T11:27:28;94721.53;;;6.43;52.21
33151;BME280;19508;42.578;23.416;2023-02-12T11:32:36;94719.69;;;6.50;51.93
33151;BME280;19508;42.578;23.416;2023-02-12T11:35:17;94710.75;;;6.90;51.74
33151;BME280;19508;42.578;23.416;2023-02-12T11:37:50;94702.06;;;7.07;50.20
33151;BME280;19508;42.578;23.416;2023-02-12T11:42:50;94712.81;;;6.88;50.31
33151;BME280;19508;42.578;23.416;2023-02-12T11:45:19;94702.94;;;6.95;50.62
33151;BME280;19508;42.578;23.416;2023-02-12T11:47:45;94726.25;;;6.55;51.87
33151;BME280;19508;42.578;23.416;2023-02-12T11:50:26;94714.09;;;6.72;50.54
33151;BME280;19508;42.578;23.416;2023-02-12T11:53:15;94710.19;;;6.28;52.41
33151;BME280;19508;42.578;23.416;2023-02-12T11:55:52;94714.09;;;6.32;52.55
33151;BME280;19508;42.578;23.416;2023-02-12T11:58:23;94716.91;;;5.84;53.13
33151;BME280;19508;42.578;23.416;2023-02-12T12:06:54;94726.44;;;6.27;52.38
33151;BME280;19508;42.578;23.416;2023-02-12T12:09:40;94731.34;;;5.97;53.24
33151;BME280;19508;42.578;23.416;2023-02-12T12:20:39;94736.22;;;5.86;53.41
33151;BME280;19508;42.578;23.416;2023-02-12T12:23:15;94722.31;;;6.11;53.49
33151;BME280;19508;42.578;23.416;2023-02-12T12:25:49;94734.50;;;6.33;52.60
33151;BME280;19508;42.578;23.416;2023-02-12T12:31:16;94737.56;;;6.43;52.37
33151;BME280;19508;42.578;23.416;2023-02-12T12:41:34;94756.88;;;5.99;53.45
33151;BME280;19508;42.578;23.416;2023-02-12T12:44:14;94755.84;;;5.52;54.45
33151;BME280;19508;42.578;23.416;2023-02-12T13:06:38;94753.19;;;6.07;52.05
33151;BME280;19508;42.578;23.416;2023-02-12T13:11:50;94753.19;;;6.20;51.76
33151;BME280;19508;42.578;23.416;2023-02-12T13:20:03;94777.63;;;6.04;51.99
33151;BME280;19508;42.578;23.416;2023-02-12T13:25:20;94767.00;;;5.69;52.95
33151;BME280;19508;42.578;23.416;2023-02-12T13:27:47;94773.13;;;5.63;52.84
33151;BME280;19508;42.578;23.416;2023-02-12T13:35:22;94769.47;;;5.71;54.14
33151;BME280;19508;42.578;23.416;2023-02-12T13:37:53;94780.84;;;5.38;54.27
33151;BME280;19508;42.578;23.416;2023-02-12T13:40:27;94778.53;;;5.70;53.80
33151;BME280;19508;42.578;23.416;2023-02-12T13:43:27;94785.41;;;5.44;54.30
33151;BME280;19508;42.578;23.416;2023-02-12T13:46:13;94786.13;;;5.25;55.68
33151;BME280;19508;42.578;23.416;2023-02-12T13:51:49;94774.91;;;5.43;55.71
33151;BME280;19508;42.578;23.416;2023-02-12T13:57:01;94785.34;;;5.37;55.56
33151;BME280;19508;42.578;23.416;2023-02-12T14:02:23;94777.69;;;5.69;55.02
33151;BME280;19508;42.578;23.416;2023-02-12T14:07:19;94798.50;;;5.32;56.32
33151;BME280;19508;42.578;23.416;2023-02-12T14:15:07;94800.03;;;5.96;54.77
33151;BME280;19508;42.578;23.416;2023-02-12T14:25:37;94824.59;;;5.02;57.11
33151;BME280;19508;42.578;23.416;2023-02-12T14:30:36;94834.91;;;5.12;57.11
33151;BME280;19508;42.578;23.416;2023-02-12T14:35:40;94841.19;;;4.98;57.71
33151;BME280;19508;42.578;23.416;2023-02-12T14:40:48;94842.94;;;5.12;57.05
33151;BME280;19508;42.578;23.416;2023-02-12T14:43:28;94841.84;;;5.34;57.36
33151;BME280;19508;42.578;23.416;2023-02-12T14:45:56;94847.44;;;4.84;58.12
33151;BME280;19508;42.578;23.416;2023-02-12T14:48:47;94846.16;;;5.01;58.37
33151;BME280;19508;42.578;23.416;2023-02-12T14:51:35;94865.25;;;4.76;59.02
33151;BME280;19508;42.578;23.416;2023-02-12T14:54:03;94868.03;;;4.68;59.37
33151;BME280;19508;42.578;23.416;2023-02-12T14:56:33;94868.66;;;4.92;58.76
33151;BME280;19508;42.578;23.416;2023-02-12T14:59:02;94865.25;;;4.76;59.22
33151;BME280;19508;42.578;23.416;2023-02-12T15:01:31;94865.25;;;4.76;59.55
33151;BME280;19508;42.578;23.416;2023-02-12T15:04:08;94865.97;;;4.64;59.72
33151;BME280;19508;42.578;23.416;2023-02-12T15:06:42;94881.16;;;4.63;59.75
33151;BME280;19508;42.578;23.416;2023-02-12T15:09:20;94895.16;;;4.50;60.08
33151;BME280;19508;42.578;23.416;2023-02-12T15:12:01;94892.56;;;4.57;60.14
33151;BME280;19508;42.578;23.416;2023-02-12T15:14:30;94895.16;;;4.50;59.89
33151;BME280;19508;42.578;23.416;2023-02-12T15:17:18;94904.50;;;4.04;61.77
33151;BME280;19508;42.578;23.416;2023-02-12T15:20:04;94906.72;;;4.00;61.95
33151;BME280;19508;42.578;23.416;2023-02-12T15:22:38;94906.38;;;4.24;61.40
33151;BME280;19508;42.578;23.416;2023-02-12T15:25:42;94918.69;;;4.25;61.71
33151;BME280;19508;42.578;23.416;2023-02-12T15:28:24;94926.34;;;4.14;61.83
33151;BME280;19508;42.578;23.416;2023-02-12T15:30:58;94932.19;;;3.88;62.23
33151;BME280;19508;42.578;23.416;2023-02-12T15:33:31;94934.56;;;3.83;62.40
33151;BME280;19508;42.578;23.416;2023-02-12T15:35:57;94940.28;;;3.65;62.92
33151;BME280;19508;42.578;23.416;2023-02-12T15:38:41;94952.03;;;3.71;63.26
33151;BME280;19508;42.578;23.416;2023-02-12T15:41:08;94954.50;;;3.72;63.21
33151;BME280;19508;42.578;23.416;2023-02-12T15:43:47;94957.00;;;3.88;62.51
33151;BME280;19508;42.578;23.416;2023-02-12T15:46:17;94951.56;;;3.96;62.39
33151;BME280;19508;42.578;23.416;2023-02-12T15:48:43;94949.63;;;3.90;62.15
33151;BME280;19508;42.578;23.416;2023-02-12T15:53:34;94957.91;;;3.81;63.31
33151;BME280;19508;42.578;23.416;2023-02-12T15:56:01;94964.78;;;3.75;63.73
33151;BME280;19508;42.578;23.416;2023-02-12T15:58:30;94963.97;;;3.60;63.65
33151;BME280;19508;42.578;23.416;2023-02-12T16:01:02;94964.22;;;3.50;64.21
33151;BME280;19508;42.578;23.416;2023-02-12T16:03:30;94961.19;;;3.38;64.51